Moffett Federal Airfield Mountain View US
ICAO: KNUQ
IATA: NUQ
Category: Medium
Scheduled Services: No

Elevation: 32 ft
TransAlt. 18000 ft.

Airport Communications:
NORCAL APP:31.76
NORCAL APP:120.1
ATIS/ASOS:124.175
CLNC DEL:38.08
CTAF:119.55
NORCAL DEP:121.3
GND:121.85
ANG:39.09
BASE OPS:25.17
TWR:119.55

KNUQ Zoom In..

Runways:

(A) RW 14L length 9197 ft width 200 ft
LOC 110.35 / hdg 142

(B) RW 14R length 8122 ft width 200 ft
LOC 110.35 / hdg 142

(C) RW 32L length 8122 ft width 200 ft
LOC 110.35 / hdg 322

(D) RW 32R length 9197 ft width 200 ft
ILS 110.35 / hdg 322

Location; KNUQ
Day. 25 / Time. 11.56 Zulu
* Altimeter: 30.04
* Temperature: 13° c. 55.4°f.
* Wind from: 010° Speed 04 kn.
Dewpoint: 10° c.
Visibility: 10 Statute Miles.
Clouds: Overcast 1300 ft.

KNUQ 251156Z 01004KT 10SM OVC013 13/10 A3004 RMK AO2 SLP175 T01280100 10128 20122 56001


Wind From 010°
Speed 04 kn.

  YouTube Music Video
 
jpsmedia.com for Web Design  worldairports.se 2018   terms of use